createdAt,value
2018-02-11T00:00:40.143Z,1.50
2018-02-11T00:03:08.430Z,1.50
2018-02-11T00:05:36.648Z,1.50
2018-02-11T00:08:04.876Z,1.50
2018-02-11T00:10:33.076Z,1.50
2018-02-11T00:13:01.277Z,1.50
2018-02-11T00:15:29.526Z,1.60
2018-02-11T00:17:57.720Z,1.60
2018-02-11T00:20:25.966Z,1.50
2018-02-11T00:22:54.292Z,1.50
2018-02-11T00:25:23.296Z,1.50
2018-02-11T00:27:52.313Z,1.50
2018-02-11T00:30:21.087Z,1.50
2018-02-11T00:32:49.284Z,1.40
2018-02-11T00:35:17.493Z,1.40
2018-02-11T00:37:52.178Z,1.40
2018-02-11T00:40:21.193Z,1.40
2018-02-11T00:42:49.453Z,1.50
2018-02-11T00:45:17.712Z,1.50
2018-02-11T00:47:45.943Z,1.50
2018-02-11T00:50:14.960Z,1.50
2018-02-11T00:52:44.093Z,1.50
2018-02-11T00:55:12.319Z,1.40
2018-02-11T00:57:40.591Z,1.40
2018-02-11T01:00:08.873Z,1.40
2018-02-11T01:02:37.081Z,1.50
2018-02-11T01:05:05.306Z,1.40
2018-02-11T01:07:33.631Z,1.40
2018-02-11T01:10:02.623Z,1.40
2018-02-11T01:12:31.580Z,1.40
2018-02-11T01:14:59.793Z,1.40
2018-02-11T01:17:28.070Z,1.40
2018-02-11T01:19:57.075Z,1.40
2018-02-11T01:22:25.388Z,1.40
2018-02-11T01:24:53.591Z,1.40
2018-02-11T01:27:21.805Z,1.30
2018-02-11T01:29:50.072Z,1.40
2018-02-11T01:32:18.267Z,1.40
2018-02-11T01:34:46.507Z,1.50
2018-02-11T01:37:15.510Z,1.50
2018-02-11T01:39:43.776Z,1.50
2018-02-11T01:42:12.736Z,1.50
2018-02-11T01:44:41.008Z,1.50
2018-02-11T01:47:09.321Z,1.50
2018-02-11T01:49:38.290Z,1.50
2018-02-11T01:52:06.620Z,1.50
2018-02-11T01:54:34.831Z,1.50
2018-02-11T01:57:03.044Z,1.50
2018-02-11T01:59:32.037Z,1.50
2018-02-11T02:02:01.045Z,1.50
2018-02-11T02:04:30.049Z,1.60
2018-02-11T02:06:59.040Z,1.50
2018-02-11T02:09:27.399Z,1.50
2018-02-11T02:11:56.474Z,1.60
2018-02-11T02:14:24.718Z,1.60
2018-02-11T02:16:52.952Z,1.60
2018-02-11T02:19:21.161Z,1.60
2018-02-11T02:21:49.416Z,1.60
2018-02-11T02:24:17.869Z,1.60
2018-02-11T02:26:46.877Z,1.60
2018-02-11T02:29:15.092Z,1.60
2018-02-11T02:31:43.525Z,1.50
2018-02-11T02:34:12.060Z,1.50
2018-02-11T02:36:42.360Z,1.50
2018-02-11T02:39:10.555Z,1.50
2018-02-11T02:41:39.697Z,1.50
2018-02-11T02:44:08.725Z,1.60
2018-02-11T02:46:36.954Z,1.60
2018-02-11T02:49:05.178Z,1.60
2018-02-11T02:51:33.418Z,1.60
2018-02-11T02:54:02.372Z,1.60
2018-02-11T02:56:30.586Z,1.60
2018-02-11T02:58:59.684Z,1.60
2018-02-11T03:01:27.893Z,1.60
2018-02-11T03:03:56.076Z,1.70
2018-02-11T03:06:24.416Z,1.60
2018-02-11T03:08:53.402Z,1.70
2018-02-11T03:11:21.681Z,1.70
2018-02-11T03:13:49.905Z,1.70
2018-02-11T03:16:18.200Z,1.70
2018-02-11T03:18:46.457Z,1.70
2018-02-11T03:21:15.919Z,1.80
2018-02-11T03:23:44.895Z,1.80
2018-02-11T03:26:13.164Z,1.70
2018-02-11T03:28:41.384Z,1.70
2018-02-11T03:31:09.683Z,1.70
2018-02-11T03:33:37.873Z,1.70
2018-02-11T03:36:06.508Z,1.70
2018-02-11T03:38:34.700Z,1.70
2018-02-11T03:41:02.896Z,1.70
2018-02-11T03:43:31.315Z,1.80
2018-02-11T03:46:00.417Z,1.80
2018-02-11T03:48:28.645Z,1.70
2018-02-11T03:50:56.880Z,1.80
2018-02-11T03:53:25.872Z,1.90
2018-02-11T03:55:56.471Z,1.80
2018-02-11T03:58:24.720Z,1.80
2018-02-11T04:00:53.210Z,1.80
2018-02-11T04:03:21.430Z,1.80
2018-02-11T04:05:49.752Z,1.70
2018-02-11T04:08:17.990Z,1.70
2018-02-11T04:10:46.956Z,1.70
2018-02-11T04:13:15.944Z,1.70
2018-02-11T04:15:44.936Z,1.70
2018-02-11T04:18:13.956Z,1.70
2018-02-11T04:20:42.173Z,1.70
2018-02-11T04:23:10.399Z,1.70
2018-02-11T04:25:38.584Z,1.70
2018-02-11T04:28:06.877Z,1.70
2018-02-11T04:30:35.129Z,1.70
2018-02-11T04:33:04.103Z,1.80
2018-02-11T04:35:32.327Z,1.70
2018-02-11T04:38:00.621Z,1.70
2018-02-11T04:40:28.824Z,1.70
2018-02-11T04:42:57.834Z,1.70
2018-02-11T04:45:26.788Z,1.70
2018-02-11T04:47:55.118Z,1.70
2018-02-11T04:50:23.408Z,1.70
2018-02-11T04:52:51.631Z,1.70
2018-02-11T04:55:19.836Z,1.70
2018-02-11T04:57:48.066Z,1.80
2018-02-11T05:00:16.288Z,1.80
2018-02-11T05:02:44.481Z,1.80
2018-02-11T05:05:12.753Z,1.80
2018-02-11T05:07:40.992Z,1.80
2018-02-11T05:10:09.189Z,1.80
2018-02-11T05:12:39.401Z,1.80
2018-02-11T05:15:08.416Z,1.80
2018-02-11T05:17:36.605Z,1.80
2018-02-11T05:20:04.842Z,1.80
2018-02-11T05:22:33.831Z,1.80
2018-02-11T05:25:02.034Z,1.70
2018-02-11T05:27:30.289Z,1.80
2018-02-11T05:29:59.264Z,1.80
2018-02-11T05:32:27.476Z,1.80
2018-02-11T05:34:57.068Z,1.90
2018-02-11T05:37:26.050Z,1.80
2018-02-11T05:39:55.005Z,1.80
2018-02-11T05:42:23.236Z,1.80
2018-02-11T05:44:51.440Z,1.80
2018-02-11T05:47:19.648Z,1.80
2018-02-11T05:49:47.940Z,1.70
2018-02-11T05:52:17.000Z,1.70
2018-02-11T05:54:45.220Z,1.70
2018-02-11T05:57:14.340Z,1.70
2018-02-11T05:59:42.566Z,1.70
2018-02-11T06:02:10.791Z,1.70
2018-02-11T06:04:39.028Z,1.70
2018-02-11T06:07:07.229Z,1.60
2018-02-11T06:09:35.511Z,1.70
2018-02-11T06:12:03.805Z,1.70
2018-02-11T06:14:32.040Z,1.70
2018-02-11T06:17:01.052Z,1.70
2018-02-11T06:19:29.346Z,1.70
2018-02-11T06:21:58.374Z,1.60
2018-02-11T06:24:26.573Z,1.60
2018-02-11T06:26:54.794Z,1.60
2018-02-11T06:29:23.018Z,1.50
2018-02-11T06:31:51.206Z,1.50
2018-02-11T06:34:19.466Z,1.40
2018-02-11T06:36:47.755Z,1.40
2018-02-11T06:39:16.221Z,1.30
2018-02-11T06:41:44.615Z,1.30
2018-02-11T06:44:13.592Z,1.30
2018-02-11T06:46:41.900Z,1.30
2018-02-11T06:49:10.905Z,1.40
2018-02-11T06:51:39.131Z,1.30
2018-02-11T06:54:07.328Z,1.50
2018-02-11T06:56:36.317Z,1.50
2018-02-11T06:59:05.399Z,1.60
2018-02-11T07:01:33.634Z,1.60
2018-02-11T07:04:01.884Z,1.60
2018-02-11T07:06:30.122Z,1.60
2018-02-11T07:08:58.335Z,1.70
2018-02-11T07:11:27.343Z,1.70
2018-02-11T07:13:55.700Z,1.70
2018-02-11T07:16:24.676Z,1.80
2018-02-11T07:18:52.904Z,1.80
2018-02-11T07:21:21.236Z,1.80
2018-02-11T07:23:50.240Z,1.70
2018-02-11T07:26:19.300Z,1.80
2018-02-11T07:28:48.316Z,1.90
2018-02-11T07:31:17.304Z,1.80
2018-02-11T07:33:46.316Z,1.70
2018-02-11T07:36:15.309Z,1.70
2018-02-11T07:38:44.358Z,1.70
2018-02-11T07:41:12.784Z,1.70
2018-02-11T07:43:41.780Z,1.90
2018-02-11T07:46:11.610Z,2.00
2018-02-11T07:48:40.576Z,1.90
2018-02-11T07:51:09.545Z,1.90
2018-02-11T07:53:37.734Z,1.90
2018-02-11T07:56:06.736Z,1.80
2018-02-11T07:58:35.716Z,1.80
2018-02-11T08:01:04.184Z,1.80
2018-02-11T08:03:32.375Z,2.00
2018-02-11T08:06:00.747Z,2.10
2018-02-11T08:08:28.929Z,2.20
2018-02-11T08:10:57.992Z,2.50
2018-02-11T08:13:26.234Z,2.50
2018-02-11T08:15:54.517Z,2.80
2018-02-11T08:18:22.746Z,3.10
2018-02-11T08:20:51.117Z,3.30
2018-02-11T08:23:19.500Z,3.30
2018-02-11T08:25:47.796Z,3.10
2018-02-11T08:28:16.947Z,3.00
2018-02-11T08:30:45.151Z,3.00
2018-02-11T08:33:13.398Z,2.80
2018-02-11T08:35:41.708Z,2.80
2018-02-11T08:38:09.890Z,2.80
2018-02-11T08:40:38.892Z,2.80
2018-02-11T08:43:07.114Z,2.80
2018-02-11T08:45:35.518Z,3.10
2018-02-11T08:48:04.640Z,3.10
2018-02-11T08:50:33.628Z,3.20
2018-02-11T08:53:01.809Z,3.20
2018-02-11T08:55:30.877Z,3.20
2018-02-11T08:57:59.132Z,3.20
2018-02-11T09:00:27.348Z,3.20
2018-02-11T09:02:56.293Z,3.30
2018-02-11T09:05:24.689Z,3.20
2018-02-11T09:07:52.873Z,3.30
2018-02-11T09:10:21.168Z,3.30
2018-02-11T09:12:50.564Z,3.50
2018-02-11T09:15:18.810Z,3.40
2018-02-11T09:17:47.104Z,3.60
2018-02-11T09:20:15.317Z,3.50
2018-02-11T09:22:43.741Z,3.40
2018-02-11T09:25:12.056Z,3.50
2018-02-11T09:27:41.120Z,3.80
2018-02-11T09:30:09.339Z,3.80
2018-02-11T09:32:37.807Z,4.00
2018-02-11T09:35:06.357Z,4.00
2018-02-11T09:37:34.592Z,4.00
2018-02-11T09:40:03.888Z,3.90
2018-02-11T09:42:32.981Z,3.90
2018-02-11T09:45:01.487Z,3.90
2018-02-11T09:47:29.683Z,4.00
2018-02-11T09:49:57.989Z,4.30
2018-02-11T09:52:26.210Z,4.20
2018-02-11T09:54:54.486Z,4.00
2018-02-11T09:57:22.691Z,3.90
2018-02-11T09:59:51.052Z,3.70
2018-02-11T10:02:19.427Z,3.60
2018-02-11T10:04:47.652Z,3.40
2018-02-11T10:07:16.108Z,3.40
2018-02-11T10:09:44.412Z,3.30
2018-02-11T10:12:13.371Z,3.40
2018-02-11T10:14:41.689Z,3.30
2018-02-11T10:17:10.081Z,3.40
2018-02-11T10:19:39.045Z,3.70
2018-02-11T10:22:07.480Z,3.60
2018-02-11T10:24:35.780Z,3.90
2018-02-11T10:27:03.988Z,4.00
2018-02-11T10:29:32.948Z,4.20
2018-02-11T10:32:01.260Z,4.10
2018-02-11T10:34:29.510Z,4.10
2018-02-11T10:36:57.791Z,3.90
2018-02-11T10:39:26.214Z,4.20
2018-02-11T10:41:55.240Z,4.10
2018-02-11T10:44:23.421Z,4.10
2018-02-11T10:46:51.685Z,4.10
2018-02-11T10:49:19.905Z,3.80
2018-02-11T10:51:48.116Z,3.80
2018-02-11T10:54:16.442Z,3.70
2018-02-11T10:56:44.727Z,3.40
2018-02-11T10:59:12.927Z,3.40
2018-02-11T11:01:41.185Z,3.50
2018-02-11T11:04:09.389Z,3.60
2018-02-11T11:06:38.368Z,3.40
2018-02-11T11:09:08.100Z,3.40
2018-02-11T11:11:37.113Z,3.50
2018-02-11T11:14:05.332Z,3.50
2018-02-11T11:16:33.673Z,3.40
2018-02-11T11:19:01.929Z,3.40
2018-02-11T11:21:30.141Z,3.30
2018-02-11T11:23:58.368Z,3.20
2018-02-11T11:26:27.690Z,3.10
2018-02-11T11:28:56.068Z,3.10
2018-02-11T11:31:25.542Z,3.30
2018-02-11T11:33:53.752Z,3.20
2018-02-11T11:36:22.008Z,3.00
2018-02-11T11:38:50.293Z,3.00
2018-02-11T11:41:18.533Z,3.00
2018-02-11T11:43:46.821Z,3.10
2018-02-11T11:46:16.437Z,3.00
2018-02-11T11:48:46.177Z,3.00
2018-02-11T11:51:14.467Z,3.00
2018-02-11T11:53:42.844Z,3.00
2018-02-11T11:56:11.080Z,2.90
2018-02-11T11:58:40.193Z,2.90
2018-02-11T12:01:09.409Z,2.70
2018-02-11T12:03:37.840Z,2.70
2018-02-11T12:06:06.174Z,2.60
2018-02-11T12:08:34.479Z,2.60
2018-02-11T12:11:02.778Z,2.60
2018-02-11T12:13:30.955Z,2.60
2018-02-11T12:16:00.051Z,2.60
2018-02-11T12:18:29.135Z,2.60
2018-02-11T12:20:57.470Z,2.50
2018-02-11T12:23:25.798Z,2.70
2018-02-11T12:25:54.004Z,2.70
2018-02-11T12:28:22.244Z,2.70
2018-02-11T12:30:50.584Z,2.60
2018-02-11T12:33:18.847Z,2.60
2018-02-11T12:35:47.052Z,2.90
2018-02-11T12:38:15.420Z,2.90
2018-02-11T12:40:43.625Z,2.80
2018-02-11T12:43:12.516Z,2.80
2018-02-11T12:45:40.813Z,2.80
2018-02-11T12:48:09.276Z,2.90
2018-02-11T12:50:37.474Z,3.00
2018-02-11T12:53:06.535Z,3.00
2018-02-11T12:55:34.715Z,2.90
2018-02-11T12:58:02.923Z,3.00
2018-02-11T13:00:31.944Z,2.90
2018-02-11T13:03:00.161Z,2.90
2018-02-11T13:05:28.514Z,2.90
2018-02-11T13:07:56.745Z,2.90
2018-02-11T13:10:25.703Z,2.80
2018-02-11T13:12:53.983Z,2.80
2018-02-11T13:17:51.096Z,2.90
2018-02-11T13:20:19.305Z,2.90
2018-02-11T13:22:47.783Z,2.90
2018-02-11T13:25:16.753Z,2.90
2018-02-11T13:27:45.072Z,2.90
2018-02-11T13:30:13.276Z,2.90
2018-02-11T13:32:42.284Z,3.00
2018-02-11T13:35:10.509Z,3.00
2018-02-11T13:37:38.732Z,3.00
2018-02-11T13:40:07.062Z,3.10
2018-02-11T13:42:35.240Z,3.20
2018-02-11T13:45:03.485Z,3.30
2018-02-11T13:47:31.791Z,3.30
2018-02-11T13:49:59.987Z,3.30
2018-02-11T13:52:28.568Z,3.30
2018-02-11T13:54:56.820Z,3.20
2018-02-11T13:57:25.071Z,3.20
2018-02-11T13:59:53.371Z,3.10
2018-02-11T14:02:21.677Z,3.00
2018-02-11T14:04:50.639Z,3.10
2018-02-11T14:07:20.932Z,3.00
2018-02-11T14:09:49.220Z,3.10
2018-02-11T14:12:17.433Z,3.00
2018-02-11T14:14:45.673Z,3.00
2018-02-11T14:17:13.893Z,3.10
2018-02-11T14:19:42.124Z,3.00
2018-02-11T14:22:10.340Z,2.90
2018-02-11T14:24:38.567Z,3.00
2018-02-11T14:27:06.764Z,3.00
2018-02-11T14:29:34.963Z,3.00
2018-02-11T14:32:03.244Z,3.00
2018-02-11T14:34:31.464Z,2.90
2018-02-11T14:36:59.765Z,2.80
2018-02-11T14:39:28.016Z,2.90
2018-02-11T14:41:56.980Z,2.80
2018-02-11T14:44:25.198Z,2.80
2018-02-11T14:46:53.496Z,2.80
2018-02-11T14:49:21.733Z,2.70
2018-02-11T14:51:50.769Z,2.70
2018-02-11T14:54:19.020Z,2.70
2018-02-11T14:56:47.297Z,2.70
2018-02-11T14:59:15.471Z,2.70
2018-02-11T15:01:43.750Z,2.80
2018-02-11T15:04:12.020Z,2.80
2018-02-11T15:06:40.208Z,2.80
2018-02-11T15:09:09.334Z,2.90
2018-02-11T15:11:37.668Z,2.90
2018-02-11T15:14:06.680Z,2.80
2018-02-11T15:16:34.908Z,2.80
2018-02-11T15:19:03.109Z,2.80
2018-02-11T15:21:31.391Z,2.80
2018-02-11T15:23:59.874Z,2.80
2018-02-11T15:26:28.218Z,2.80
2018-02-11T15:28:56.473Z,2.90
2018-02-11T15:31:24.904Z,2.80
2018-02-11T15:33:53.094Z,2.90
2018-02-11T15:36:21.442Z,2.90
2018-02-11T15:38:49.691Z,2.90
2018-02-11T15:41:17.924Z,2.80
2018-02-11T15:43:46.252Z,2.80
2018-02-11T15:46:14.519Z,2.80
2018-02-11T15:48:42.739Z,2.80
2018-02-11T15:51:10.992Z,2.80
2018-02-11T15:53:40.076Z,2.80
2018-02-11T15:56:08.415Z,2.70
2018-02-11T15:58:36.623Z,2.80
2018-02-11T16:01:04.858Z,2.80
2018-02-11T16:03:33.071Z,2.70
2018-02-11T16:06:01.270Z,2.70
2018-02-11T16:08:30.289Z,2.70
2018-02-11T16:10:58.481Z,2.70
2018-02-11T16:13:26.694Z,2.70
2018-02-11T16:15:54.998Z,2.70
2018-02-11T16:18:23.222Z,2.70
2018-02-11T16:20:51.480Z,2.70
2018-02-11T16:23:20.468Z,2.60
2018-02-11T16:25:48.993Z,2.60
2018-02-11T16:28:17.198Z,2.60
2018-02-11T16:30:46.191Z,2.70
2018-02-11T16:33:15.148Z,2.60
2018-02-11T16:35:43.468Z,2.60
2018-02-11T16:38:14.118Z,2.60
2018-02-11T16:40:42.332Z,2.60
2018-02-11T16:43:10.552Z,2.60
2018-02-11T16:45:38.890Z,2.60
2018-02-11T16:48:07.091Z,2.60
2018-02-11T16:50:36.049Z,2.60
2018-02-11T16:53:04.283Z,2.60
2018-02-11T16:55:33.006Z,2.60
2018-02-11T16:58:01.249Z,2.60
2018-02-11T17:00:30.344Z,2.60
2018-02-11T17:02:58.905Z,2.60
2018-02-11T17:05:27.210Z,2.60
2018-02-11T17:07:56.089Z,2.60
2018-02-11T17:10:25.902Z,2.50
2018-02-11T17:12:54.864Z,2.50
2018-02-11T17:15:23.137Z,2.50
2018-02-11T17:17:51.388Z,2.50
2018-02-11T17:20:19.608Z,2.40
2018-02-11T17:22:48.648Z,2.40
2018-02-11T17:25:16.854Z,2.40
2018-02-11T17:27:45.044Z,2.40
2018-02-11T17:30:14.114Z,2.30
2018-02-11T17:32:42.317Z,2.30
2018-02-11T17:35:10.701Z,2.30
2018-02-11T17:37:39.689Z,2.30
2018-02-11T17:40:08.761Z,2.30
2018-02-11T17:42:36.973Z,2.30
2018-02-11T17:45:05.288Z,2.30
2018-02-11T17:47:33.480Z,2.20
2018-02-11T17:50:01.673Z,2.20
2018-02-11T17:52:29.927Z,2.20
2018-02-11T17:54:58.357Z,2.20
2018-02-11T17:57:26.581Z,2.20
2018-02-11T17:59:55.321Z,2.20
2018-02-11T18:02:24.454Z,2.20
2018-02-11T18:04:52.656Z,2.20
2018-02-11T18:07:22.280Z,2.20
2018-02-11T18:09:51.669Z,2.20
2018-02-11T18:12:19.919Z,2.20
2018-02-11T18:14:48.191Z,2.20
2018-02-11T18:17:16.393Z,2.20
2018-02-11T18:19:44.726Z,2.20
2018-02-11T18:22:13.028Z,2.20
2018-02-11T18:24:41.249Z,2.20
2018-02-11T18:27:09.484Z,2.20
2018-02-11T18:29:37.689Z,2.20
2018-02-11T18:32:05.896Z,2.20
2018-02-11T18:34:34.852Z,2.20
2018-02-11T18:37:03.115Z,2.20
2018-02-11T18:39:31.312Z,2.20
2018-02-11T18:41:59.514Z,2.20
2018-02-11T18:44:28.509Z,2.40
2018-02-11T18:46:57.872Z,2.40
2018-02-11T18:49:26.075Z,2.30
2018-02-11T18:51:54.340Z,2.40
2018-02-11T18:54:22.574Z,2.40
2018-02-11T18:56:50.932Z,2.50
2018-02-11T18:59:19.407Z,2.50
2018-02-11T19:01:47.616Z,2.50
2018-02-11T19:04:15.875Z,2.60
2018-02-11T19:06:44.613Z,2.60
2018-02-11T19:09:12.812Z,2.60
2018-02-11T19:11:41.056Z,2.60
2018-02-11T19:14:09.629Z,2.60
2018-02-11T19:16:37.833Z,2.60
2018-02-11T19:19:06.059Z,2.60
2018-02-11T19:21:34.345Z,2.60
2018-02-11T19:24:03.275Z,2.60
2018-02-11T19:26:31.476Z,2.60
2018-02-11T19:28:59.769Z,2.60
2018-02-11T19:31:28.153Z,2.60
2018-02-11T19:33:56.332Z,2.70
2018-02-11T19:36:24.828Z,2.70
2018-02-11T19:38:53.245Z,2.70
2018-02-11T19:41:21.449Z,2.70
2018-02-11T19:43:49.695Z,2.70
2018-02-11T19:46:18.726Z,2.70
2018-02-11T19:48:47.187Z,2.70
2018-02-11T19:51:16.218Z,2.70
2018-02-11T19:53:44.444Z,2.70
2018-02-11T19:56:13.550Z,2.70
2018-02-11T19:58:41.848Z,2.60
2018-02-11T20:01:10.033Z,2.70
2018-02-11T20:03:38.252Z,2.70
2018-02-11T20:06:06.507Z,2.70
2018-02-11T20:08:34.830Z,2.70
2018-02-11T20:11:03.890Z,2.70
2018-02-11T20:13:32.321Z,2.70
2018-02-11T20:16:00.539Z,2.80
2018-02-11T20:18:28.768Z,2.80
2018-02-11T20:20:56.994Z,2.80
2018-02-11T20:23:25.203Z,2.80
2018-02-11T20:25:53.431Z,2.80
2018-02-11T20:28:21.646Z,2.80
2018-02-11T20:30:50.636Z,2.90
2018-02-11T20:33:19.625Z,2.90
2018-02-11T20:35:47.877Z,2.80
2018-02-11T20:38:16.072Z,2.90
2018-02-11T20:40:45.043Z,2.80
2018-02-11T20:43:13.472Z,2.80
2018-02-11T20:45:41.716Z,2.80
2018-02-11T20:48:09.908Z,2.80
2018-02-11T20:50:38.974Z,2.80
2018-02-11T20:53:07.172Z,2.80
2018-02-11T20:55:36.136Z,2.80
2018-02-11T20:58:04.428Z,2.80
2018-02-11T21:00:32.629Z,2.80
2018-02-11T21:03:00.828Z,2.70
2018-02-11T21:05:29.136Z,2.70
2018-02-11T21:07:57.336Z,2.70
2018-02-11T21:10:26.498Z,2.60
2018-02-11T21:12:54.832Z,2.60
2018-02-11T21:15:23.794Z,2.60
2018-02-11T21:17:52.015Z,2.60
2018-02-11T21:20:20.433Z,2.60
2018-02-11T21:22:49.458Z,2.60
2018-02-11T21:25:17.649Z,2.60
2018-02-11T21:27:46.712Z,2.50
2018-02-11T21:30:15.269Z,2.50
2018-02-11T21:32:43.571Z,2.50
2018-02-11T21:35:12.341Z,2.50
2018-02-11T21:37:40.505Z,2.60
2018-02-11T21:40:08.868Z,2.50
2018-02-11T21:42:37.313Z,2.60
2018-02-11T21:45:06.626Z,2.50
2018-02-11T21:47:35.576Z,2.50
2018-02-11T21:50:03.882Z,2.50
2018-02-11T21:52:32.126Z,2.60
2018-02-11T21:55:00.945Z,2.60
2018-02-11T21:57:29.220Z,2.60
2018-02-11T21:59:58.647Z,2.60
2018-02-11T22:02:26.955Z,2.60
2018-02-11T22:04:55.287Z,2.60
2018-02-11T22:07:23.569Z,2.60
2018-02-11T22:09:52.533Z,2.60
2018-02-11T22:12:20.920Z,2.60
2018-02-11T22:14:49.306Z,2.60
2018-02-11T22:17:18.656Z,2.60
2018-02-11T22:19:46.913Z,2.60
2018-02-11T22:22:15.611Z,2.60
2018-02-11T22:24:43.889Z,2.60
2018-02-11T22:27:12.128Z,2.60
2018-02-11T22:29:40.319Z,2.70
2018-02-11T22:32:09.317Z,2.70
2018-02-11T22:34:37.610Z,2.70
2018-02-11T22:37:05.868Z,2.70
2018-02-11T22:39:34.084Z,2.70
2018-02-11T22:42:02.404Z,2.70
2018-02-11T22:44:30.992Z,2.80
2018-02-11T22:46:59.996Z,2.80
2018-02-11T22:49:28.246Z,2.80
2018-02-11T22:51:56.645Z,2.70
2018-02-11T22:54:25.607Z,2.70
2018-02-11T22:56:53.916Z,2.70
2018-02-11T22:59:23.117Z,2.70
2018-02-11T23:01:52.188Z,2.70
2018-02-11T23:04:20.524Z,2.60
2018-02-11T23:06:48.861Z,2.60
2018-02-11T23:09:17.937Z,2.60
2018-02-11T23:11:46.275Z,2.60
2018-02-11T23:14:15.417Z,2.70
2018-02-11T23:16:43.661Z,2.60
2018-02-11T23:19:11.994Z,2.70
2018-02-11T23:21:40.940Z,2.70
2018-02-11T23:24:09.180Z,2.70
2018-02-11T23:26:37.440Z,2.80
2018-02-11T23:29:06.228Z,2.80
2018-02-11T23:31:35.219Z,2.70
2018-02-11T23:34:03.521Z,2.70
2018-02-11T23:36:31.792Z,2.70
2018-02-11T23:38:59.988Z,2.70
2018-02-11T23:41:28.268Z,2.70
2018-02-11T23:43:56.497Z,2.80
2018-02-11T23:46:24.689Z,2.70
2018-02-11T23:48:52.952Z,2.70
2018-02-11T23:51:21.974Z,2.70
2018-02-11T23:53:50.176Z,2.70
2018-02-11T23:56:18.517Z,2.70
2018-02-11T23:58:46.724Z,2.70
